createdAt,value
2023-04-02T03:59:04.563Z,0.00
2023-04-02T04:00:04.552Z,0.00
2023-04-02T04:01:04.500Z,0.00
2023-04-02T04:02:04.536Z,0.00
2023-04-02T04:03:04.479Z,0.00
2023-04-02T04:04:04.529Z,0.00
2023-04-02T04:05:04.493Z,0.00
2023-04-02T04:06:04.444Z,0.00
2023-04-02T04:07:04.450Z,0.00
2023-04-02T04:08:04.480Z,0.00
2023-04-02T04:09:04.437Z,0.00
2023-04-02T04:10:04.428Z,0.00
2023-04-02T04:11:04.437Z,0.00
2023-04-02T04:12:04.419Z,0.00
2023-04-02T04:13:04.466Z,0.00
2023-04-02T04:14:04.417Z,0.00
2023-04-02T04:15:04.410Z,0.00
2023-04-02T04:16:04.401Z,0.00
2023-04-02T04:17:04.474Z,0.00
2023-04-02T04:18:04.482Z,0.00
2023-04-02T04:19:04.379Z,0.00
2023-04-02T04:20:04.398Z,0.00
2023-04-02T04:21:04.373Z,0.00
2023-04-02T04:22:04.373Z,0.00
2023-04-02T04:23:04.366Z,0.00
2023-04-02T04:24:04.362Z,0.00
2023-04-02T04:25:04.355Z,0.00
2023-04-02T04:26:04.374Z,0.00
2023-04-02T04:27:04.480Z,0.00
2023-04-02T04:28:04.351Z,0.00
2023-04-02T04:29:04.346Z,0.00
2023-04-02T04:30:04.351Z,0.00
2023-04-02T04:31:04.356Z,0.00
2023-04-02T04:32:04.348Z,0.00
2023-04-02T04:33:04.353Z,0.00
2023-04-02T04:34:04.319Z,0.00
2023-04-02T04:35:04.316Z,0.00
2023-04-02T04:36:04.334Z,0.00
2023-04-02T04:37:04.309Z,4.00
2023-04-02T04:38:04.315Z,0.00
2023-04-02T04:39:04.309Z,0.00
2023-04-02T04:40:04.321Z,4.00
2023-04-02T04:41:04.284Z,4.00
2023-04-02T04:42:04.278Z,4.00
2023-04-02T04:43:04.275Z,4.00
2023-04-02T04:44:04.272Z,4.00
2023-04-02T04:45:04.319Z,4.00
2023-04-02T04:46:04.270Z,4.00
2023-04-02T04:47:04.270Z,8.00
2023-04-02T04:48:04.280Z,8.00
2023-04-02T04:49:04.252Z,8.00
2023-04-02T04:50:04.248Z,12.00
2023-04-02T04:51:04.255Z,12.00
2023-04-02T04:52:04.235Z,16.00
2023-04-02T04:53:04.233Z,16.00
2023-04-02T04:54:04.241Z,16.00
2023-04-02T04:55:04.224Z,20.00
2023-04-02T04:56:18.177Z,20.00
2023-04-02T04:57:04.244Z,24.00
2023-04-02T04:58:04.337Z,24.00
2023-04-02T04:59:04.241Z,28.00
2023-04-02T05:00:04.226Z,32.00
2023-04-02T05:01:04.232Z,32.00
2023-04-02T05:02:04.215Z,40.00
2023-04-02T05:03:04.238Z,40.00
2023-04-02T05:04:04.232Z,48.00
2023-04-02T05:05:04.251Z,48.00
2023-04-02T05:06:04.182Z,52.00
2023-04-02T05:07:04.199Z,56.00
2023-04-02T05:08:04.179Z,64.00
2023-04-02T05:09:04.198Z,68.00
2023-04-02T05:10:04.159Z,72.00
2023-04-02T05:11:04.150Z,80.00
2023-04-02T05:12:04.174Z,88.00
2023-04-02T05:13:04.161Z,96.00
2023-04-02T05:14:04.163Z,100.00
2023-04-02T05:15:04.146Z,108.00
2023-04-02T05:16:04.209Z,112.00
2023-04-02T05:17:04.161Z,116.00
2023-04-02T05:18:04.229Z,128.00
2023-04-02T05:19:04.143Z,132.00
2023-04-02T05:20:04.123Z,140.00
2023-04-02T05:21:04.116Z,144.00
2023-04-02T05:22:04.123Z,148.00
2023-04-02T05:23:04.133Z,160.00
2023-04-02T05:24:04.107Z,160.00
2023-04-02T05:25:04.091Z,164.00
2023-04-02T05:26:04.103Z,168.00
2023-04-02T05:27:04.085Z,168.00
2023-04-02T05:28:04.111Z,176.00
2023-04-02T05:29:04.103Z,176.00
2023-04-02T05:30:04.078Z,176.00
2023-04-02T05:31:04.127Z,184.00
2023-04-02T05:32:04.079Z,196.00
2023-04-02T05:33:04.095Z,200.00
2023-04-02T05:34:04.078Z,204.00
2023-04-02T05:35:04.082Z,208.00
2023-04-02T05:36:04.151Z,212.00
2023-04-02T05:37:05.786Z,224.00
2023-04-02T05:38:04.061Z,228.00
2023-04-02T05:39:04.053Z,232.00
2023-04-02T05:40:04.036Z,244.00
2023-04-02T05:41:04.039Z,248.00
2023-04-02T05:42:04.041Z,256.00
2023-04-02T05:43:04.044Z,264.00
2023-04-02T05:44:04.024Z,260.00
2023-04-02T05:45:04.026Z,252.00
2023-04-02T05:46:04.010Z,244.00
2023-04-02T05:47:04.052Z,244.00
2023-04-02T05:48:04.079Z,256.00
2023-04-02T05:49:04.006Z,268.00
2023-04-02T05:50:03.990Z,276.00
2023-04-02T05:51:04.050Z,280.00
2023-04-02T05:52:04.014Z,288.00
2023-04-02T05:53:04.020Z,288.00
2023-04-02T05:54:03.995Z,288.00
2023-04-02T05:55:03.979Z,284.00
2023-04-02T05:56:04.011Z,264.00
2023-04-02T05:57:04.010Z,256.00
2023-04-02T05:58:29.493Z,268.00
2023-04-02T05:59:03.967Z,272.00
2023-04-02T06:00:03.957Z,268.00
2023-04-02T06:01:03.973Z,276.00
2023-04-02T06:02:03.978Z,284.00
2023-04-02T06:03:04.057Z,280.00
2023-04-02T06:04:03.997Z,276.00
2023-04-02T06:05:03.932Z,280.00
2023-04-02T06:06:03.945Z,292.00
2023-04-02T06:07:03.990Z,300.00
2023-04-02T06:08:03.962Z,304.00
2023-04-02T06:09:03.912Z,324.00
2023-04-02T06:10:03.935Z,340.00
2023-04-02T06:11:03.922Z,360.00
2023-04-02T06:12:03.924Z,376.00
2023-04-02T06:13:03.934Z,376.00
2023-04-02T06:14:03.904Z,388.00
2023-04-02T06:15:03.901Z,408.00
2023-04-02T06:16:03.934Z,428.00
2023-04-02T06:17:03.948Z,448.00
2023-04-02T06:18:03.977Z,460.00
2023-04-02T06:19:03.881Z,460.00
2023-04-02T06:20:03.894Z,456.00
2023-04-02T06:21:03.897Z,448.00
2023-04-02T06:22:03.866Z,452.00
2023-04-02T06:23:03.904Z,452.00
2023-04-02T06:24:03.912Z,448.00
2023-04-02T06:25:03.856Z,440.00
2023-04-02T06:26:03.854Z,444.00
2023-04-02T06:27:03.876Z,468.00
2023-04-02T06:28:03.841Z,508.00
2023-04-02T06:29:03.893Z,520.00
2023-04-02T06:30:03.855Z,516.00
2023-04-02T06:31:03.891Z,528.00
2023-04-02T06:32:03.833Z,524.00
2023-04-02T06:33:03.908Z,536.00
2023-04-02T06:34:03.855Z,552.00
2023-04-02T06:35:03.817Z,568.00
2023-04-02T06:36:03.848Z,572.00
2023-04-02T06:37:03.835Z,584.00
2023-04-02T06:38:03.827Z,560.00
2023-04-02T06:39:03.842Z,580.00
2023-04-02T06:40:03.830Z,600.00
2023-04-02T06:41:03.807Z,608.00
2023-04-02T06:44:36.329Z,620.00
2023-04-02T06:45:36.511Z,640.00
2023-04-02T06:46:36.367Z,648.00
2023-04-02T06:47:36.372Z,652.00
2023-04-02T06:48:36.304Z,664.00
2023-04-02T06:49:36.297Z,684.00
2023-04-02T06:50:36.291Z,736.00
2023-04-02T06:51:36.311Z,728.00
2023-04-02T06:52:36.306Z,716.00
2023-04-02T06:53:36.291Z,712.00
2023-04-02T06:54:36.305Z,700.00
2023-04-02T06:55:36.430Z,708.00
2023-04-02T06:56:36.328Z,728.00
2023-04-02T06:57:36.304Z,736.00
2023-04-02T06:58:36.275Z,740.00
2023-04-02T06:59:36.266Z,764.00
2023-04-02T07:00:36.249Z,792.00
2023-04-02T07:01:36.295Z,796.00
2023-04-02T07:02:36.301Z,828.00
2023-04-02T07:03:36.271Z,852.00
2023-04-02T07:04:36.331Z,836.00
2023-04-02T07:05:36.602Z,824.00
2023-04-02T07:06:36.232Z,792.00
2023-04-02T07:07:36.231Z,784.00
2023-04-02T07:08:36.239Z,800.00
2023-04-02T07:09:36.224Z,852.00
2023-04-02T07:10:36.264Z,908.00
2023-04-02T07:11:36.213Z,940.00
2023-04-02T07:12:36.200Z,956.00
2023-04-02T07:13:36.221Z,948.00
2023-04-02T07:14:36.198Z,948.00
2023-04-02T07:15:36.516Z,960.00
2023-04-02T07:16:36.200Z,980.00
2023-04-02T07:17:36.220Z,1004.00
2023-04-02T07:18:36.194Z,984.00
2023-04-02T07:19:36.178Z,952.00
2023-04-02T07:20:36.182Z,912.00
2023-04-02T07:21:36.171Z,864.00
2023-04-02T07:22:36.197Z,844.00
2023-04-02T07:23:36.170Z,852.00
2023-04-02T07:24:36.173Z,864.00
2023-04-02T07:25:36.479Z,888.00
2023-04-02T07:26:36.246Z,916.00
2023-04-02T07:27:36.166Z,932.00
2023-04-02T07:28:36.160Z,948.00
2023-04-02T07:29:36.169Z,972.00
2023-04-02T07:30:36.138Z,980.00
2023-04-02T07:31:36.296Z,1004.00
2023-04-02T07:32:36.223Z,1004.00
2023-04-02T07:33:36.177Z,1008.00
2023-04-02T07:34:36.221Z,1060.00
2023-04-02T07:35:36.268Z,1084.00
2023-04-02T07:36:36.122Z,1124.00
2023-04-02T07:37:36.118Z,1144.00
2023-04-02T07:38:36.146Z,1140.00
2023-04-02T07:39:37.752Z,1156.00
2023-04-02T07:40:36.123Z,1188.00
2023-04-02T07:41:36.127Z,1168.00
2023-04-02T07:42:36.104Z,1144.00
2023-04-02T07:43:36.144Z,1116.00
2023-04-02T07:44:36.119Z,1108.00
2023-04-02T07:45:36.406Z,1132.00
2023-04-02T07:46:36.115Z,1172.00
2023-04-02T07:47:36.131Z,1200.00
2023-04-02T07:48:36.105Z,1252.00
2023-04-02T07:49:36.076Z,1284.00
2023-04-02T07:50:36.129Z,1308.00
2023-04-02T07:51:36.076Z,1308.00
2023-04-02T07:52:36.246Z,1320.00
2023-04-02T07:53:36.073Z,1364.00
2023-04-02T07:54:36.080Z,1388.00
2023-04-02T07:55:36.374Z,1468.00
2023-04-02T07:56:36.042Z,1600.00
2023-04-02T07:57:36.103Z,1616.00
2023-04-02T07:58:36.081Z,1644.00
2023-04-02T07:59:36.042Z,1720.00
2023-04-02T08:00:36.074Z,1768.00
2023-04-02T08:01:36.048Z,1828.00
2023-04-02T08:02:36.113Z,1840.00
2023-04-02T08:03:36.182Z,1796.00
2023-04-02T08:04:36.018Z,1724.00
2023-04-02T08:05:36.273Z,1684.00
2023-04-02T08:06:36.026Z,1624.00
2023-04-02T08:07:36.003Z,1664.00
2023-04-02T08:08:36.030Z,1672.00
2023-04-02T08:09:36.031Z,1656.00
2023-04-02T08:10:35.995Z,1708.00
2023-04-02T08:11:35.995Z,1752.00
2023-04-02T08:12:35.993Z,1788.00
2023-04-02T08:13:36.047Z,1776.00
2023-04-02T08:14:36.036Z,1844.00
2023-04-02T08:15:36.251Z,1992.00
2023-04-02T08:16:36.028Z,2012.00
2023-04-02T08:17:36.041Z,2060.00
2023-04-02T08:18:35.978Z,2216.00
2023-04-02T08:19:44.618Z,2212.00
2023-04-02T08:20:35.970Z,2236.00
2023-04-02T08:21:35.963Z,2188.00
2023-04-02T08:22:35.966Z,2232.00
2023-04-02T08:23:35.976Z,2348.00
2023-04-02T08:24:35.971Z,2316.00
2023-04-02T08:25:36.182Z,2256.00
2023-04-02T08:26:35.939Z,2252.00
2023-04-02T08:27:35.960Z,2312.00
2023-04-02T08:28:35.944Z,2292.00
2023-04-02T08:29:35.944Z,2324.00
2023-04-02T08:30:35.983Z,2336.00
2023-04-02T08:31:35.931Z,2328.00
2023-04-02T08:32:35.970Z,2216.00
2023-04-02T08:33:35.938Z,2188.00
2023-04-02T08:34:35.935Z,2208.00
2023-04-02T08:35:36.423Z,2220.00
2023-04-02T08:36:35.933Z,2244.00
2023-04-02T08:37:35.915Z,2352.00
2023-04-02T08:38:35.905Z,2464.00
2023-04-02T08:39:35.909Z,2496.00
2023-04-02T08:40:35.922Z,2516.00
2023-04-02T08:41:35.895Z,2588.00
2023-04-02T08:42:35.946Z,2640.00
2023-04-02T08:43:35.912Z,2664.00
2023-04-02T08:44:35.953Z,2576.00
2023-04-02T08:45:35.891Z,2604.00
2023-04-02T08:46:35.928Z,2612.00
2023-04-02T08:47:35.905Z,2504.00
2023-04-02T08:48:35.874Z,2580.00
2023-04-02T08:49:35.878Z,2544.00
2023-04-02T08:50:35.896Z,2516.00
2023-04-02T08:51:35.897Z,2492.00
2023-04-02T08:52:35.869Z,2476.00
2023-04-02T08:53:36.556Z,2536.00
2023-04-02T08:54:35.907Z,2548.00
2023-04-02T08:55:36.218Z,2588.00
2023-04-02T08:56:35.864Z,2620.00
2023-04-02T08:57:35.893Z,2740.00
2023-04-02T08:58:35.858Z,2752.00
2023-04-02T08:59:35.842Z,2824.00
2023-04-02T09:00:37.819Z,2724.00
2023-04-02T09:01:35.883Z,2620.00
2023-04-02T09:02:35.975Z,2588.00
2023-04-02T09:03:35.849Z,2688.00
2023-04-02T09:04:35.850Z,2840.00
2023-04-02T09:05:35.990Z,2812.00
2023-04-02T09:06:35.841Z,2784.00
2023-04-02T09:07:35.819Z,2776.00
2023-04-02T09:08:35.838Z,2740.00
2023-04-02T09:09:35.833Z,2716.00
2023-04-02T09:10:35.827Z,2740.00
2023-04-02T09:11:35.805Z,2884.00
2023-04-02T09:12:35.812Z,3040.00
2023-04-02T09:13:35.821Z,3092.00
2023-04-02T09:14:35.822Z,3048.00
2023-04-02T09:15:36.074Z,3060.00
2023-04-02T09:16:35.799Z,2964.00
2023-04-02T09:17:50.444Z,2928.00
2023-04-02T09:18:35.832Z,2932.00
2023-04-02T09:19:35.804Z,2912.00
2023-04-02T09:20:35.807Z,2872.00
2023-04-02T09:21:35.796Z,2796.00
2023-04-02T09:22:35.840Z,2812.00
2023-04-02T09:23:35.820Z,2844.00
2023-04-02T09:24:35.792Z,2728.00
2023-04-02T09:25:35.976Z,2692.00
2023-04-02T09:26:35.780Z,2720.00
2023-04-02T09:27:35.773Z,2852.00
2023-04-02T09:28:35.785Z,2964.00
2023-04-02T09:29:35.833Z,3120.00
2023-04-02T09:30:35.771Z,3196.00
2023-04-02T09:31:35.782Z,3200.00
2023-04-02T09:32:35.812Z,3348.00
2023-04-02T09:33:35.772Z,3392.00
2023-04-02T09:34:35.772Z,3444.00
2023-04-02T09:35:35.796Z,3172.00
2023-04-02T09:36:35.770Z,3188.00
2023-04-02T09:37:35.751Z,3316.00
2023-04-02T09:38:35.743Z,3356.00
2023-04-02T09:39:35.748Z,3376.00
2023-04-02T09:40:35.774Z,3360.00
2023-04-02T09:41:36.882Z,3280.00
2023-04-02T09:42:35.742Z,3180.00
2023-04-02T09:43:35.766Z,3092.00
2023-04-02T09:44:35.743Z,3100.00
2023-04-02T09:45:35.984Z,3120.00
2023-04-02T09:46:35.781Z,3148.00
2023-04-02T09:47:37.091Z,3332.00
2023-04-02T09:48:35.741Z,3428.00
2023-04-02T09:49:35.719Z,3492.00
2023-04-02T09:50:35.746Z,3400.00
2023-04-02T09:51:35.708Z,3312.00
2023-04-02T09:52:35.705Z,3192.00
2023-04-02T09:53:35.735Z,3168.00
2023-04-02T09:54:35.719Z,3240.00
2023-04-02T09:55:35.865Z,3256.00
2023-04-02T09:56:35.700Z,3260.00
2023-04-02T09:57:35.699Z,3272.00
2023-04-02T09:58:35.710Z,3300.00
2023-04-02T09:59:35.737Z,3456.00
2023-04-02T10:00:35.702Z,3676.00
2023-04-02T10:01:35.773Z,3888.00
2023-04-02T10:13:26.409Z,3704.00
2023-04-02T10:14:26.394Z,3736.00
2023-04-02T10:15:26.373Z,3668.00
2023-04-02T10:16:27.040Z,3644.00
2023-04-02T10:17:26.405Z,5788.00
2023-04-02T10:18:26.350Z,4780.00
2023-04-02T10:19:26.396Z,4240.00
2023-04-02T10:20:26.378Z,4176.00
2023-04-02T10:21:26.365Z,4076.00
2023-04-02T10:22:26.336Z,3908.00
2023-04-02T10:23:26.343Z,4312.00
2023-04-02T10:24:26.342Z,5780.00
2023-04-02T10:25:26.369Z,5504.00
2023-04-02T10:26:26.330Z,5532.00
2023-04-02T10:27:26.319Z,6256.00
2023-04-02T10:28:26.320Z,5968.00
2023-04-02T10:29:26.345Z,4396.00
2023-04-02T10:30:26.361Z,4388.00
2023-04-02T10:31:26.432Z,4468.00
2023-04-02T10:32:26.404Z,4800.00
2023-04-02T10:33:26.361Z,4952.00
2023-04-02T10:34:26.324Z,4848.00
2023-04-02T10:35:26.413Z,4664.00
2023-04-02T10:36:26.322Z,4496.00
2023-04-02T10:37:26.310Z,4440.00
2023-04-02T10:38:26.320Z,4384.00
2023-04-02T10:39:26.333Z,4436.00
2023-04-02T10:40:26.327Z,4536.00
2023-04-02T10:41:26.307Z,4428.00
2023-04-02T10:42:26.324Z,4284.00
2023-04-02T10:43:26.317Z,4128.00
2023-04-02T10:44:26.329Z,4092.00
2023-04-02T10:45:26.347Z,4132.00
2023-04-02T10:46:26.343Z,4184.00
2023-04-02T10:47:26.348Z,4192.00
2023-04-02T10:48:26.307Z,4024.00
2023-04-02T10:49:26.359Z,3992.00
2023-04-02T10:50:26.298Z,3920.00
2023-04-02T10:51:26.298Z,3660.00
2023-04-02T10:52:26.291Z,3508.00
2023-04-02T10:53:26.300Z,3660.00
2023-04-02T10:54:26.299Z,3988.00
2023-04-02T10:55:26.297Z,3796.00
2023-04-02T10:56:26.299Z,3460.00
2023-04-02T10:57:26.417Z,3468.00
2023-04-02T10:58:26.328Z,3492.00
2023-04-02T10:59:26.314Z,3356.00
2023-04-02T11:00:26.292Z,3240.00
2023-04-02T11:01:26.332Z,3448.00
2023-04-02T11:02:26.350Z,3580.00
2023-04-02T11:03:26.356Z,3648.00
2023-04-02T11:04:26.285Z,3788.00
2023-04-02T11:05:26.298Z,3972.00
2023-04-02T11:06:26.279Z,4144.00
2023-04-02T11:07:26.283Z,4148.00
2023-04-02T11:08:26.305Z,4204.00
2023-04-02T11:09:26.280Z,6628.00
2023-04-02T11:10:26.272Z,4576.00
2023-04-02T11:11:26.291Z,6660.00
2023-04-02T11:12:26.280Z,5384.00
2023-04-02T11:13:26.291Z,4040.00
2023-04-02T11:14:26.260Z,3964.00
2023-04-02T11:15:26.275Z,4092.00
2023-04-02T11:16:26.322Z,4120.00
2023-04-02T11:17:26.311Z,4164.00
2023-04-02T11:18:26.271Z,4108.00
2023-04-02T11:19:26.271Z,3792.00
2023-04-02T11:20:26.267Z,3564.00
2023-04-02T11:21:26.257Z,3192.00
2023-04-02T11:22:26.274Z,3044.00
2023-04-02T11:23:26.284Z,3204.00
2023-04-02T11:24:26.263Z,3544.00
2023-04-02T11:25:26.263Z,3480.00
2023-04-02T11:26:26.261Z,3500.00
2023-04-02T11:27:26.258Z,3816.00
2023-04-02T11:28:26.270Z,3824.00
2023-04-02T11:29:26.268Z,3920.00
2023-04-02T11:30:26.303Z,5732.00
2023-04-02T11:31:26.266Z,6632.00
2023-04-02T11:32:26.267Z,6252.00
2023-04-02T11:33:35.754Z,6124.00
2023-04-02T11:34:26.244Z,6004.00
2023-04-02T11:35:26.256Z,5980.00
2023-04-02T11:36:26.246Z,3952.00
2023-04-02T11:37:26.265Z,2804.00
2023-04-02T11:38:26.278Z,4284.00
2023-04-02T11:39:26.259Z,6336.00
2023-04-02T11:40:26.253Z,6516.00
2023-04-02T11:41:26.245Z,6436.00
2023-04-02T11:42:26.273Z,6480.00
2023-04-02T11:43:26.260Z,6296.00
2023-04-02T11:44:26.290Z,6152.00
2023-04-02T11:45:26.318Z,6120.00
2023-04-02T11:46:26.358Z,6116.00
2023-04-02T11:47:26.309Z,6152.00
2023-04-02T11:48:26.245Z,6180.00
2023-04-02T11:49:26.258Z,6176.00
2023-04-02T11:50:26.257Z,6220.00
2023-04-02T11:51:26.248Z,6288.00
2023-04-02T11:52:26.280Z,6400.00
2023-04-02T11:53:26.269Z,6492.00
2023-04-02T11:54:26.281Z,6624.00
2023-04-02T11:55:26.269Z,6928.00
2023-04-02T11:56:26.254Z,7268.00
2023-04-02T11:57:26.345Z,7680.00
2023-04-02T11:58:26.250Z,7996.00
2023-04-02T11:59:26.288Z,8024.00
2023-04-02T12:00:26.292Z,8060.00
2023-04-02T12:01:26.277Z,8268.00
2023-04-02T12:02:26.363Z,8524.00
2023-04-02T12:03:26.319Z,5332.00
2023-04-02T12:04:26.294Z,8852.00
2023-04-02T12:05:26.410Z,5316.00
2023-04-02T12:06:26.297Z,8608.00
2023-04-02T12:07:26.289Z,8544.00
2023-04-02T12:08:26.313Z,8228.00
2023-04-02T12:09:26.314Z,8120.00
2023-04-02T12:10:26.315Z,8112.00
2023-04-02T12:11:26.293Z,8172.00
2023-04-02T12:12:26.297Z,8176.00
2023-04-02T12:13:26.301Z,8152.00
2023-04-02T12:14:26.313Z,8264.00
2023-04-02T12:15:26.328Z,8380.00
2023-04-02T12:16:26.345Z,8496.00
2023-04-02T12:17:26.337Z,8764.00
2023-04-02T12:18:26.317Z,9140.00
2023-04-02T12:19:26.337Z,9552.00
2023-04-02T12:20:26.342Z,9812.00
2023-04-02T12:21:26.346Z,10160.00
2023-04-02T12:22:26.351Z,10388.00
2023-04-02T12:23:26.325Z,10852.00
2023-04-02T12:24:26.354Z,9932.00
2023-04-02T12:25:26.336Z,11436.00
2023-04-02T12:26:26.345Z,11356.00
2023-04-02T12:27:26.380Z,10916.00
2023-04-02T12:28:26.364Z,10764.00
2023-04-02T12:29:26.455Z,10980.00
2023-04-02T12:30:26.352Z,11340.00
2023-04-02T12:31:26.464Z,11672.00
2023-04-02T12:32:27.815Z,11712.00
2023-04-02T12:33:26.433Z,11688.00
2023-04-02T12:34:26.382Z,10896.00
2023-04-02T12:35:26.420Z,12024.00
2023-04-02T12:36:26.393Z,11040.00
2023-04-02T12:37:26.443Z,4944.00
2023-04-02T12:38:26.421Z,5028.00
2023-04-02T12:39:28.260Z,8884.00
2023-04-02T12:40:26.445Z,13008.00
2023-04-02T12:41:26.427Z,7900.00
2023-04-02T12:42:26.464Z,13336.00
2023-04-02T12:43:26.481Z,13144.00
2023-04-02T12:44:26.442Z,12672.00
2023-04-02T12:45:29.175Z,12360.00
2023-04-02T12:46:26.474Z,12156.00
2023-04-02T12:47:26.461Z,10992.00
2023-04-02T12:48:26.477Z,11820.00
2023-04-02T12:49:26.447Z,12144.00
2023-04-02T12:50:26.494Z,5292.00
2023-04-02T12:51:28.363Z,5556.00
2023-04-02T12:52:26.461Z,5848.00
2023-04-02T12:53:26.510Z,13756.00
2023-04-02T12:54:26.472Z,12096.00
2023-04-02T12:55:26.486Z,14896.00
2023-04-02T12:56:26.523Z,10960.00
2023-04-02T12:57:26.563Z,14760.00
2023-04-02T12:58:26.494Z,14840.00
2023-04-02T12:59:26.531Z,14748.00
2023-04-02T13:00:26.534Z,13952.00
2023-04-02T13:01:26.573Z,13668.00
2023-04-02T13:02:26.581Z,13748.00
2023-04-02T13:03:28.542Z,14492.00
2023-04-02T13:04:26.541Z,9132.00
2023-04-02T13:05:26.549Z,7000.00
2023-04-02T13:06:26.554Z,6356.00
2023-04-02T13:07:26.650Z,5284.00
2023-04-02T13:08:26.566Z,5228.00
2023-04-02T13:09:28.659Z,4820.00
2023-04-02T13:10:26.573Z,10680.00
2023-04-02T13:11:26.567Z,14816.00
2023-04-02T13:12:26.596Z,7436.00
2023-04-02T13:13:26.579Z,17176.00
2023-04-02T13:14:26.581Z,12300.00
2023-04-02T13:15:28.153Z,14384.00
2023-04-02T13:16:26.619Z,15132.00
2023-04-02T13:17:26.637Z,14616.00
2023-04-02T13:18:26.631Z,14388.00
2023-04-02T13:19:26.625Z,14076.00
2023-04-02T13:20:26.625Z,14580.00
2023-04-02T13:21:28.147Z,14096.00
2023-04-02T13:22:26.638Z,14892.00
2023-04-02T13:23:26.644Z,15016.00
2023-04-02T13:24:26.638Z,15168.00
2023-04-02T13:25:26.668Z,15208.00
2023-04-02T13:26:26.663Z,15288.00
2023-04-02T13:27:26.679Z,14712.00
2023-04-02T13:28:26.680Z,16748.00
2023-04-02T13:29:26.674Z,16692.00
2023-04-02T13:30:26.689Z,17280.00
2023-04-02T13:31:26.704Z,17376.00
2023-04-02T13:32:26.711Z,17504.00
2023-04-02T13:33:26.734Z,17952.00
2023-04-02T13:34:26.717Z,18528.00
2023-04-02T13:35:26.752Z,20032.00
2023-04-02T13:36:26.706Z,20640.00
2023-04-02T13:37:26.754Z,21440.00
2023-04-02T13:38:26.786Z,25344.00
2023-04-02T13:39:26.711Z,8476.00
2023-04-02T13:40:26.732Z,6212.00
2023-04-02T13:41:26.811Z,9172.00
2023-04-02T13:42:26.729Z,57024.00
2023-04-02T13:43:26.733Z,11400.00
2023-04-02T13:44:26.744Z,12796.00
2023-04-02T13:45:26.759Z,39680.00
2023-04-02T13:46:26.743Z,8784.00
2023-04-02T13:47:26.838Z,7688.00
2023-04-02T13:48:26.800Z,16304.00
2023-04-02T13:49:26.762Z,12024.00
2023-04-02T13:50:26.773Z,10040.00
2023-04-02T13:51:26.803Z,7456.00
2023-04-02T13:52:26.781Z,6016.00
2023-04-02T13:53:26.798Z,9328.00
2023-04-02T13:54:26.799Z,18144.00
2023-04-02T13:55:26.815Z,69440.00
2023-04-02T13:56:26.809Z,17036.00
2023-04-02T13:57:26.858Z,47872.00
2023-04-02T13:58:26.800Z,63584.00
2023-04-02T13:59:26.828Z,17820.00
2023-04-02T14:00:26.804Z,29728.00
2023-04-02T14:01:26.898Z,6816.00
2023-04-02T14:02:26.838Z,5568.00
2023-04-02T14:03:26.819Z,5116.00
2023-04-02T14:04:26.889Z,5380.00
2023-04-02T14:05:26.827Z,4576.00
2023-04-02T14:06:26.841Z,9760.00
2023-04-02T14:07:26.833Z,50720.00
2023-04-02T14:08:26.844Z,71072.00
2023-04-02T14:09:26.882Z,34080.00
2023-04-02T14:10:26.844Z,51776.00
2023-04-02T14:11:26.903Z,69312.00
2023-04-02T14:12:26.884Z,68160.00
2023-04-02T14:13:26.890Z,56480.00
2023-04-02T14:14:26.888Z,64896.00
2023-04-02T14:15:26.869Z,63424.00
2023-04-02T14:16:26.940Z,64608.00
2023-04-02T14:17:26.881Z,67168.00
2023-04-02T14:18:26.876Z,67648.00
2023-04-02T14:19:26.924Z,68704.00
2023-04-02T14:20:26.904Z,60672.00
2023-04-02T14:21:26.887Z,69760.00
2023-04-02T14:22:26.891Z,14976.00
2023-04-02T14:23:26.919Z,6728.00
2023-04-02T14:24:26.906Z,5284.00
2023-04-02T14:25:26.906Z,68384.00
2023-04-02T14:26:26.899Z,67776.00
2023-04-02T14:27:26.906Z,68032.00
2023-04-02T14:28:26.914Z,70656.00
2023-04-02T14:29:28.865Z,33344.00
2023-04-02T14:30:26.929Z,13828.00
2023-04-02T14:31:26.997Z,13364.00
2023-04-02T14:32:26.954Z,6424.00
2023-04-02T14:33:26.942Z,4332.00
2023-04-02T14:34:26.961Z,4164.00
2023-04-02T14:35:27.083Z,4712.00
2023-04-02T14:36:26.955Z,6228.00
2023-04-02T14:37:26.964Z,64608.00
2023-04-02T14:38:26.955Z,35328.00
2023-04-02T14:39:26.974Z,49696.00
2023-04-02T14:40:26.996Z,59872.00
2023-04-02T14:41:26.977Z,60416.00
2023-04-02T14:42:26.975Z,11324.00
2023-04-02T14:43:26.979Z,57952.00
2023-04-02T14:44:26.995Z,8388.00
2023-04-02T14:45:27.038Z,6552.00
2023-04-02T14:46:27.001Z,5980.00
2023-04-02T14:47:27.017Z,6908.00
2023-04-02T14:48:27.013Z,5340.00
2023-04-02T14:49:26.990Z,4668.00
2023-04-02T14:50:27.016Z,4248.00
2023-04-02T14:51:27.007Z,4436.00
2023-04-02T14:52:27.021Z,4860.00
2023-04-02T14:53:27.012Z,5688.00
2023-04-02T14:54:27.032Z,6936.00
2023-04-02T14:55:27.032Z,8600.00
2023-04-02T14:56:27.047Z,24608.00
2023-04-02T14:57:27.062Z,10124.00
2023-04-02T14:58:27.017Z,6868.00
2023-04-02T14:59:27.014Z,7468.00
2023-04-02T15:00:27.021Z,54528.00
2023-04-02T15:01:27.112Z,18400.00
2023-04-02T15:02:27.087Z,52384.00
2023-04-02T15:03:27.149Z,41024.00
2023-04-02T15:04:27.038Z,51040.00
2023-04-02T15:05:27.043Z,49472.00
2023-04-02T15:06:27.046Z,49952.00
2023-04-02T15:07:27.029Z,49088.00
2023-04-02T15:08:27.043Z,41024.00
2023-04-02T15:09:27.039Z,9516.00
2023-04-02T15:10:27.142Z,6800.00
2023-04-02T15:11:27.045Z,5236.00
2023-04-02T15:12:27.049Z,4116.00
2023-04-02T15:13:27.048Z,3552.00
2023-04-02T15:14:27.048Z,2816.00
2023-04-02T15:15:39.041Z,2572.00
2023-04-02T15:16:27.166Z,2444.00
2023-04-02T15:17:27.146Z,2452.00
2023-04-02T15:18:27.105Z,2516.00
2023-04-02T15:19:27.101Z,2696.00
2023-04-02T15:20:27.135Z,3060.00
2023-04-02T15:21:27.081Z,3288.00
2023-04-02T15:22:27.101Z,4404.00
2023-04-02T15:23:27.059Z,3568.00
2023-04-02T15:24:27.077Z,30336.00
2023-04-02T15:25:27.080Z,31200.00
2023-04-02T15:26:27.069Z,27552.00
2023-04-02T15:27:27.091Z,27360.00
2023-04-02T15:28:27.063Z,27872.00
2023-04-02T15:29:29.601Z,28512.00
2023-04-02T15:30:27.060Z,30784.00
2023-04-02T15:31:27.099Z,29632.00
2023-04-02T15:32:27.093Z,22688.00
2023-04-02T15:33:27.089Z,10280.00
2023-04-02T15:34:27.083Z,6328.00
2023-04-02T15:35:27.814Z,6132.00
2023-04-02T15:36:27.092Z,6288.00
2023-04-02T15:37:27.104Z,5276.00
2023-04-02T15:38:27.082Z,5596.00
2023-04-02T15:39:27.074Z,3128.00
2023-04-02T15:40:27.076Z,2476.00
2023-04-02T15:41:27.084Z,2100.00
2023-04-02T15:42:27.125Z,1960.00
2023-04-02T15:43:27.093Z,1968.00
2023-04-02T15:44:27.088Z,1836.00
2023-04-02T15:45:27.117Z,1776.00
2023-04-02T15:46:27.109Z,1780.00
2023-04-02T15:47:27.138Z,1860.00
2023-04-02T15:48:27.087Z,2000.00
2023-04-02T15:49:27.125Z,2068.00
2023-04-02T15:50:27.095Z,2352.00
2023-04-02T15:51:27.106Z,3320.00
2023-04-02T15:52:27.107Z,3884.00
2023-04-02T15:53:27.119Z,4168.00
2023-04-02T15:54:27.082Z,4280.00
2023-04-02T15:55:27.083Z,3872.00
2023-04-02T15:56:27.094Z,3648.00
2023-04-02T15:57:27.130Z,3352.00
2023-04-02T15:58:27.084Z,2728.00
2023-04-02T15:59:27.110Z,2288.00
2023-04-02T16:00:27.096Z,2548.00
2023-04-02T16:12:33.815Z,2332.00
2023-04-02T16:13:33.761Z,2372.00
2023-04-02T16:14:33.754Z,2512.00
2023-04-02T16:15:33.777Z,2700.00
2023-04-02T16:16:33.801Z,2836.00
2023-04-02T16:17:33.950Z,2808.00
2023-04-02T16:18:33.737Z,2760.00
2023-04-02T16:19:33.730Z,2728.00
2023-04-02T16:20:33.924Z,2564.00
2023-04-02T16:21:33.745Z,2344.00
2023-04-02T16:22:33.745Z,2220.00
2023-04-02T16:23:33.746Z,2128.00
2023-04-02T16:24:33.752Z,2056.00
2023-04-02T16:25:33.717Z,2048.00
2023-04-02T16:26:33.743Z,2072.00
2023-04-02T16:27:33.711Z,1972.00
2023-04-02T16:28:33.729Z,1808.00
2023-04-02T16:29:47.104Z,1696.00
2023-04-02T16:30:33.852Z,1704.00
2023-04-02T16:31:33.860Z,1812.00
2023-04-02T16:32:33.708Z,1940.00
2023-04-02T16:33:33.732Z,2024.00
2023-04-02T16:34:33.727Z,2064.00
2023-04-02T16:36:33.727Z,1920.00